Time;durP1;ratioP1;P1;durP2;ratioP2;P2;SDS_P1;SDS_P2;PMS_P1;PMS_P2;Temp;Humidity;BMP_temperature;BMP_pressure;BME280_temperature;BME280_humidity;BME280_pressure;Samples;Min_cycle;Max_cycle;Signal;HPM_P1;HPM_P2
2022/10/10 00:02:00;;;;;;;;;;;;;;;;;;7365522;19;851;-52
2022/10/10 00:04:28;;;;;;;;;;;;;;;;;;7362304;19;1775;-48
2022/10/10 00:06:56;;;;;;;;;;;;;;;;;;7365215;19;803;-46
2022/10/10 00:09:24;;;;;;;;;;;;;;;;;;7362621;19;1830;-54
2022/10/10 00:11:52;;;;;;;;;;;;;;;;;;7364635;19;834;-50
2022/10/10 00:14:21;;;;;;;;;;;;;;;;;;7362501;19;1339;-44
2022/10/10 00:16:49;;;;;;;;;;;;;;;;;;7364388;19;849;-49
2022/10/10 00:19:17;;;;;;;;;;;;;;;;;;7363652;19;791;-48
2022/10/10 00:21:45;;;;;;;;;;;;;;;;;;7363116;19;803;-50
2022/10/10 00:24:13;;;;;;;;;;;;;;;;;;7365916;19;1785;-48
2022/10/10 00:26:41;;;;;;;;;;;;;;;;;;7364784;19;822;-49
2022/10/10 00:29:10;;;;;;;;;;;;;;;;;;7362969;19;1841;-47
2022/10/10 00:31:38;;;;;;;;;;;;;;;;;;7364390;19;878;-49
2022/10/10 00:34:06;;;;;;;;;;;;;;;;;;7363003;19;1219;-47
2022/10/10 00:36:34;;;;;;;;;;;;;;;;;;7364471;19;834;-45
2022/10/10 00:39:02;;;;;;;;;;;;;;;;;;7363256;19;800;-47
2022/10/10 00:41:31;;;;;;;;;;;;;;;;;;7364228;19;883;-49
2022/10/10 00:43:59;;;;;;;;;;;;;;;;;;7361800;19;1282;-49
2022/10/10 00:46:27;;;;;;;;;;;;;;;;;;7363894;19;866;-51
2022/10/10 00:48:55;;;;;;;;;;;;;;;;;;7365632;19;2170;-49
2022/10/10 00:51:23;;;;;;;;;;;;;;;;;;7372436;19;1754;-50
2022/10/10 00:53:51;;;;;;;;;;;;;;;;;;7369033;19;1283;-51
2022/10/10 00:56:19;;;;;;;;;;;;;;;;;;7370367;19;818;-47
2022/10/10 00:58:47;;;;;;;;;;;;;;;;;;7369135;19;831;-46
2022/10/10 01:01:15;;;;;;;;;;;;;;;;;;7370640;19;1667;-50
2022/10/10 01:03:43;;;;;;;;;;;;;;;;;;7368179;19;1357;-52
2022/10/10 01:06:12;;;;;;;;;;;;;;;;;;7369779;19;818;-48
2022/10/10 01:08:40;;;;;;;;;;;;;;;;;;7369405;19;1826;-50
2022/10/10 01:11:08;;;;;;;;;;;;;;;;;;7369594;19;772;-49
2022/10/10 01:13:36;;;;;;;;;;;;;;;;;;7368323;19;1289;-47
2022/10/10 01:16:04;;;;;;;;;;;;;;;;;;7369461;19;815;-49
2022/10/10 01:18:32;;;;;;;;;;;;;;;;;;7368807;19;863;-51
2022/10/10 01:21:00;;;;;;;;;;;;;;;;;;7370955;19;1810;-50
2022/10/10 01:23:28;;;;;;;;;;;;;;;;;;7367961;19;1282;-48
2022/10/10 01:25:57;;;;;;;;;;;;;;;;;;7369042;19;824;-47
2022/10/10 01:28:25;;;;;;;;;;;;;;;;;;7368096;19;1044;-47
2022/10/10 01:30:53;;;;;;;;;;;;;;;;;;7366745;19;1850;-48
2022/10/10 01:33:21;;;;;;;;;;;;;;;;;;7368051;19;1341;-48
2022/10/10 01:35:49;;;;;;;;;;;;;;;;;;7368385;19;819;-46
2022/10/10 01:38:17;;;;;;;;;;;;;;;;;;7367943;19;814;-51
2022/10/10 01:40:45;;;;;;;;;;;;;;;;;;7369478;19;870;-49
2022/10/10 01:43:13;;;;;;;;;;;;;;;;;;7367790;19;1388;-50
2022/10/10 01:45:41;;;;;;;;;;;;;;;;;;7369047;19;795;-49
2022/10/10 01:48:10;;;;;;;;;;;;;;;;;;7368276;19;1762;-47
2022/10/10 01:50:38;;;;;;;;;;;;;;;;;;7366308;19;1853;-50
2022/10/10 01:53:07;;;;;;;;;;;;;;;;;;7367715;19;1275;-52
2022/10/10 01:55:35;;;;;;;;;;;;;;;;;;7369643;19;1779;-50
2022/10/10 01:58:03;;;;;;;;;;;;;;;;;;7367306;19;891;-46
2022/10/10 02:00:34;;;;;;;;;;;;;;;;;;7366982;19;787;-51
2022/10/10 02:03:02;;;;;;;;;;;;;;;;;;7367439;19;1234;-52
2022/10/10 02:05:30;;;;;;;;;;;;;;;;;;7368861;19;772;-49
2022/10/10 02:07:58;;;;;;;;;;;;;;;;;;7367676;19;869;-49
2022/10/10 02:10:26;;;;;;;;;;;;;;;;;;7367110;19;1835;-51
2022/10/10 02:12:54;;;;;;;;;;;;;;;;;;7368194;19;1291;-49
2022/10/10 02:15:22;;;;;;;;;;;;;;;;;;7368714;19;835;-52
2022/10/10 02:17:51;;;;;;;;;;;;;;;;;;7367090;19;815;-48
2022/10/10 02:20:19;;;;;;;;;;;;;;;;;;7372360;19;1635;-48
2022/10/10 02:22:47;;;;;;;;;;;;;;;;;;7367525;19;1279;-49
2022/10/10 02:25:15;;;;;;;;;;;;;;;;;;7368374;19;820;-48
2022/10/10 02:27:43;;;;;;;;;;;;;;;;;;7366821;19;891;-48
2022/10/10 02:30:11;;;;;;;;;;;;;;;;;;7366354;19;1842;-51
2022/10/10 02:32:39;;;;;;;;;;;;;;;;;;7367626;19;1266;-49
2022/10/10 02:35:08;;;;;;;;;;;;;;;;;;7367573;19;824;-52
2022/10/10 02:37:36;;;;;;;;;;;;;;;;;;7367269;19;816;-54
2022/10/10 02:40:04;;;;;;;;;;;;;;;;;;7370840;19;1826;-45
2022/10/10 02:42:32;;;;;;;;;;;;;;;;;;7367007;19;1363;-51
2022/10/10 02:45:00;;;;;;;;;;;;;;;;;;7367821;19;819;-52
2022/10/10 02:47:28;;;;;;;;;;;;;;;;;;7369495;19;1829;-54
2022/10/10 02:49:57;;;;;;;;;;;;;;;;;;7365640;19;1845;-48
2022/10/10 02:52:25;;;;;;;;;;;;;;;;;;7367008;19;896;-50
2022/10/10 02:54:53;;;;;;;;;;;;;;;;;;7364149;19;1302;-50
2022/10/10 02:57:21;;;;;;;;;;;;;;;;;;7366818;19;803;-50
2022/10/10 02:59:49;;;;;;;;;;;;;;;;;;7365010;19;818;-52
2022/10/10 03:02:17;;;;;;;;;;;;;;;;;;7367202;19;869;-50
2022/10/10 03:04:45;;;;;;;;;;;;;;;;;;7364070;19;1360;-50
2022/10/10 03:07:13;;;;;;;;;;;;;;;;;;7367502;19;870;-49
2022/10/10 03:09:42;;;;;;;;;;;;;;;;;;7364931;19;1853;-47
2022/10/10 03:12:10;;;;;;;;;;;;;;;;;;7364074;19;803;-49
2022/10/10 03:14:38;;;;;;;;;;;;;;;;;;7363951;19;1267;-48
2022/10/10 03:17:06;;;;;;;;;;;;;;;;;;7368993;19;1834;-51
2022/10/10 03:19:34;;;;;;;;;;;;;;;;;;7365611;19;804;-49
2022/10/10 03:22:02;;;;;;;;;;;;;;;;;;7366967;19;1038;-50
2022/10/10 03:24:30;;;;;;;;;;;;;;;;;;7364174;19;1326;-51
2022/10/10 03:26:58;;;;;;;;;;;;;;;;;;7366714;19;918;-50
2022/10/10 03:29:26;;;;;;;;;;;;;;;;;;7364986;19;1858;-49
2022/10/10 03:31:55;;;;;;;;;;;;;;;;;;7366182;19;819;-46
2022/10/10 03:34:23;;;;;;;;;;;;;;;;;;7363412;19;1319;-46
2022/10/10 03:36:51;;;;;;;;;;;;;;;;;;7366145;19;955;-48
2022/10/10 03:39:19;;;;;;;;;;;;;;;;;;7365725;19;769;-49
2022/10/10 03:41:49;;;;;;;;;;;;;;;;;;7366612;19;844;-48
2022/10/10 03:44:17;;;;;;;;;;;;;;;;;;7363742;19;1812;-52
2022/10/10 03:46:45;;;;;;;;;;;;;;;;;;7366147;19;811;-48
2022/10/10 03:49:13;;;;;;;;;;;;;;;;;;7364695;19;835;-51
2022/10/10 03:51:41;;;;;;;;;;;;;;;;;;7366715;19;1849;-49
2022/10/10 03:54:09;;;;;;;;;;;;;;;;;;7363320;19;1247;-51
2022/10/10 03:56:37;;;;;;;;;;;;;;;;;;7365608;19;881;-48
2022/10/10 03:59:06;;;;;;;;;;;;;;;;;;7364723;19;819;-51
2022/10/10 04:01:34;;;;;;;;;;;;;;;;;;7365116;19;845;-48
2022/10/10 04:04:02;;;;;;;;;;;;;;;;;;7363168;19;1349;-48
2022/10/10 04:06:30;;;;;;;;;;;;;;;;;;7365802;19;848;-48
2022/10/10 04:08:58;;;;;;;;;;;;;;;;;;7364209;19;867;-53
2022/10/10 04:11:26;;;;;;;;;;;;;;;;;;7362802;19;1833;-49
2022/10/10 04:13:55;;;;;;;;;;;;;;;;;;7362904;19;1283;-48
2022/10/10 04:16:23;;;;;;;;;;;;;;;;;;7369240;19;1757;-52
2022/10/10 04:18:51;;;;;;;;;;;;;;;;;;7364063;19;796;-49
2022/10/10 04:21:19;;;;;;;;;;;;;;;;;;7364692;19;818;-50
2022/10/10 04:23:47;;;;;;;;;;;;;;;;;;7368907;19;1314;-46
2022/10/10 04:26:15;;;;;;;;;;;;;;;;;;7371002;19;874;-52
2022/10/10 04:28:43;;;;;;;;;;;;;;;;;;7370305;19;839;-47
2022/10/10 04:31:11;;;;;;;;;;;;;;;;;;7369970;19;1845;-52
2022/10/10 04:33:39;;;;;;;;;;;;;;;;;;7370023;19;1320;-46
2022/10/10 04:36:08;;;;;;;;;;;;;;;;;;7371982;19;838;-46
2022/10/10 04:38:36;;;;;;;;;;;;;;;;;;7370712;19;879;-47
2022/10/10 04:41:04;;;;;;;;;;;;;;;;;;7371780;19;886;-48
2022/10/10 04:43:32;;;;;;;;;;;;;;;;;;7371922;19;1773;-50
2022/10/10 04:46:00;;;;;;;;;;;;;;;;;;7370360;19;823;-48
2022/10/10 04:48:28;;;;;;;;;;;;;;;;;;7367985;19;840;-50
2022/10/10 04:50:56;;;;;;;;;;;;;;;;;;7369599;19;1845;-49
2022/10/10 04:53:24;;;;;;;;;;;;;;;;;;7369242;19;1263;-47
2022/10/10 04:55:53;;;;;;;;;;;;;;;;;;7370200;19;815;-48
2022/10/10 04:58:21;;;;;;;;;;;;;;;;;;7369234;19;866;-50
2022/10/10 05:00:49;;;;;;;;;;;;;;;;;;7369853;19;882;-50
2022/10/10 05:03:17;;;;;;;;;;;;;;;;;;7369070;19;1285;-50
2022/10/10 05:05:45;;;;;;;;;;;;;;;;;;7370077;19;798;-51
2022/10/10 05:08:13;;;;;;;;;;;;;;;;;;7369226;19;798;-49
2022/10/10 05:10:41;;;;;;;;;;;;;;;;;;7369338;19;1812;-52
2022/10/10 05:13:09;;;;;;;;;;;;;;;;;;7371597;19;2071;-49
2022/10/10 05:15:37;;;;;;;;;;;;;;;;;;7370198;19;814;-45
2022/10/10 05:18:06;;;;;;;;;;;;;;;;;;7368991;19;812;-50
2022/10/10 05:20:35;;;;;;;;;;;;;;;;;;7369801;19;855;-49
2022/10/10 05:23:03;;;;;;;;;;;;;;;;;;7369312;19;1279;-48
2022/10/10 05:25:31;;;;;;;;;;;;;;;;;;7369774;19;882;-48
2022/10/10 05:27:59;;;;;;;;;;;;;;;;;;7368806;19;883;-53
2022/10/10 05:30:27;;;;;;;;;;;;;;;;;;7369101;19;1827;-47
2022/10/10 05:32:55;;;;;;;;;;;;;;;;;;7369497;19;1216;-48
2022/10/10 05:35:23;;;;;;;;;;;;;;;;;;7369052;19;813;-49
2022/10/10 05:37:52;;;;;;;;;;;;;;;;;;7368610;19;794;-49
2022/10/10 05:40:20;;;;;;;;;;;;;;;;;;7370816;19;1775;-47
2022/10/10 05:42:48;;;;;;;;;;;;;;;;;;7369415;19;1346;-46
2022/10/10 05:45:16;;;;;;;;;;;;;;;;;;7370105;19;865;-51
2022/10/10 05:47:44;;;;;;;;;;;;;;;;;;7368942;19;823;-51
2022/10/10 05:50:12;;;;;;;;;;;;;;;;;;7368428;19;1838;-52
2022/10/10 05:52:40;;;;;;;;;;;;;;;;;;7373082;19;1797;-52
2022/10/10 05:55:08;;;;;;;;;;;;;;;;;;7370131;19;871;-51
2022/10/10 05:57:37;;;;;;;;;;;;;;;;;;7368802;19;773;-49
2022/10/10 06:00:05;;;;;;;;;;;;;;;;;;7372718;19;1974;-50
2022/10/10 06:02:33;;;;;;;;;;;;;;;;;;7368701;19;1177;-46
2022/10/10 06:05:01;;;;;;;;;;;;;;;;;;7369316;19;780;-48
2022/10/10 06:07:30;;;;;;;;;;;;;;;;;;7369405;19;858;-49
2022/10/10 06:09:58;;;;;;;;;;;;;;;;;;7368313;19;1883;-52
2022/10/10 06:12:26;;;;;;;;;;;;;;;;;;7366933;19;1830;-52
2022/10/10 06:14:54;;;;;;;;;;;;;;;;;;7366673;19;1381;-49
2022/10/10 06:17:23;;;;;;;;;;;;;;;;;;7368672;19;900;-50
2022/10/10 06:19:51;;;;;;;;;;;;;;;;;;7368596;19;858;-51
2022/10/10 06:22:19;;;;;;;;;;;;;;;;;;7368474;19;880;-48
2022/10/10 06:24:47;;;;;;;;;;;;;;;;;;7367117;19;1794;-53
2022/10/10 06:27:15;;;;;;;;;;;;;;;;;;7368835;19;826;-49
2022/10/10 06:29:43;;;;;;;;;;;;;;;;;;7368573;19;857;-50
2022/10/10 06:32:11;;;;;;;;;;;;;;;;;;7366366;19;1842;-52
2022/10/10 06:34:39;;;;;;;;;;;;;;;;;;7366637;19;1274;-48
2022/10/10 06:37:08;;;;;;;;;;;;;;;;;;7368385;19;834;-47
2022/10/10 06:39:36;;;;;;;;;;;;;;;;;;7372018;19;2183;-48
2022/10/10 06:42:04;;;;;;;;;;;;;;;;;;7369804;19;918;-46
2022/10/10 06:44:32;;;;;;;;;;;;;;;;;;7366347;19;1344;-50
2022/10/10 06:47:01;;;;;;;;;;;;;;;;;;7368251;19;872;-47
2022/10/10 06:49:29;;;;;;;;;;;;;;;;;;7370027;19;811;-48
2022/10/10 06:51:57;;;;;;;;;;;;;;;;;;7365870;19;1858;-47
2022/10/10 06:54:25;;;;;;;;;;;;;;;;;;7365551;19;1367;-49
2022/10/10 06:56:53;;;;;;;;;;;;;;;;;;7366707;19;843;-47
2022/10/10 06:59:21;;;;;;;;;;;;;;;;;;7367351;19;794;-47
2022/10/10 07:01:49;;;;;;;;;;;;;;;;;;7370127;19;858;-46
2022/10/10 07:04:17;;;;;;;;;;;;;;;;;;7367268;19;1262;-48
2022/10/10 07:06:45;;;;;;;;;;;;;;;;;;7369816;19;825;-48
2022/10/10 07:09:14;;;;;;;;;;;;;;;;;;7371195;19;1651;-46
2022/10/10 07:11:44;;;;;;;;;;;;;;;;;;7367729;19;1857;-48
2022/10/10 07:14:12;;;;;;;;;;;;;;;;;;7367234;19;1333;-47
2022/10/10 07:16:40;;;;;;;;;;;;;;;;;;7368544;19;800;-50
2022/10/10 07:19:08;;;;;;;;;;;;;;;;;;7369980;19;1225;-48
2022/10/10 07:21:36;;;;;;;;;;;;;;;;;;7371435;19;1713;-47
2022/10/10 07:24:05;;;;;;;;;;;;;;;;;;7365676;19;1292;-48
2022/10/10 07:26:36;;;;;;;;;;;;;;;;;;7368652;19;2041;-47
2022/10/10 07:29:05;;;;;;;;;;;;;;;;;;7367968;19;1037;-47
2022/10/10 07:31:33;;;;;;;;;;;;;;;;;;7366702;19;1862;-48
2022/10/10 07:34:01;;;;;;;;;;;;;;;;;;7365464;19;1324;-47
2022/10/10 07:36:29;;;;;;;;;;;;;;;;;;7368497;19;1680;-47
2022/10/10 07:38:57;;;;;;;;;;;;;;;;;;7368164;19;862;-48
2022/10/10 07:41:25;;;;;;;;;;;;;;;;;;7367576;19;866;-48
2022/10/10 07:43:54;;;;;;;;;;;;;;;;;;7363564;19;1353;-48
2022/10/10 07:46:22;;;;;;;;;;;;;;;;;;7368667;19;1499;-47
2022/10/10 07:48:50;;;;;;;;;;;;;;;;;;7365305;19;855;-46
2022/10/10 07:51:18;;;;;;;;;;;;;;;;;;7368489;19;1849;-48
2022/10/10 07:53:46;;;;;;;;;;;;;;;;;;7365705;19;1275;-47
2022/10/10 07:56:14;;;;;;;;;;;;;;;;;;7371636;19;1822;-48
2022/10/10 07:58:42;;;;;;;;;;;;;;;;;;7370321;19;857;-48
2022/10/10 08:01:10;;;;;;;;;;;;;;;;;;7369256;19;839;-51
2022/10/10 08:03:38;;;;;;;;;;;;;;;;;;7365989;19;1287;-49
2022/10/10 08:06:07;;;;;;;;;;;;;;;;;;7366903;19;874;-48
2022/10/10 08:08:35;;;;;;;;;;;;;;;;;;7365846;19;796;-47
2022/10/10 08:11:03;;;;;;;;;;;;;;;;;;7366083;19;1852;-47
2022/10/10 08:13:31;;;;;;;;;;;;;;;;;;7364429;19;1334;-48
2022/10/10 08:15:59;;;;;;;;;;;;;;;;;;7365736;19;863;-48
2022/10/10 08:18:27;;;;;;;;;;;;;;;;;;7365193;19;865;-47
2022/10/10 08:20:55;;;;;;;;;;;;;;;;;;7367194;19;977;-47
2022/10/10 08:23:24;;;;;;;;;;;;;;;;;;7365111;19;1612;-48
2022/10/10 08:25:52;;;;;;;;;;;;;;;;;;7365316;19;874;-53
2022/10/10 08:28:20;;;;;;;;;;;;;;;;;;7364741;19;875;-47
2022/10/10 08:30:48;;;;;;;;;;;;;;;;;;7369250;19;1845;-47
2022/10/10 08:33:16;;;;;;;;;;;;;;;;;;7367131;19;1335;-50
2022/10/10 08:35:44;;;;;;;;;;;;;;;;;;7369031;19;1408;-49
2022/10/10 08:38:13;;;;;;;;;;;;;;;;;;7364138;19;1670;-52
2022/10/10 08:40:41;;;;;;;;;;;;;;;;;;7365315;19;798;-48
2022/10/10 08:43:09;;;;;;;;;;;;;;;;;;7364052;19;1274;-47
2022/10/10 08:45:37;;;;;;;;;;;;;;;;;;7365186;19;877;-46
2022/10/10 08:48:06;;;;;;;;;;;;;;;;;;7365324;19;945;-47
2022/10/10 08:50:34;;;;;;;;;;;;;;;;;;7365326;19;776;-48
2022/10/10 08:53:02;;;;;;;;;;;;;;;;;;7362003;19;1845;-48
2022/10/10 08:55:32;;;;;;;;;;;;;;;;;;7369390;19;2384;-51
2022/10/10 08:58:00;;;;;;;;;;;;;;;;;;7364402;19;725;-49
2022/10/10 09:00:28;;;;;;;;;;;;;;;;;;7364781;19;858;-50
2022/10/10 09:02:57;;;;;;;;;;;;;;;;;;7364026;19;1263;-49
2022/10/10 09:05:25;;;;;;;;;;;;;;;;;;7368951;19;2281;-50
2022/10/10 09:07:53;;;;;;;;;;;;;;;;;;7362999;19;819;-47
2022/10/10 09:10:22;;;;;;;;;;;;;;;;;;7368602;19;814;-47
2022/10/10 09:12:50;;;;;;;;;;;;;;;;;;7369048;19;1852;-48
2022/10/10 09:15:18;;;;;;;;;;;;;;;;;;7371256;19;743;-47
2022/10/10 09:17:46;;;;;;;;;;;;;;;;;;7369228;19;823;-50
2022/10/10 09:20:14;;;;;;;;;;;;;;;;;;7370836;19;819;-48
2022/10/10 09:22:42;;;;;;;;;;;;;;;;;;7372644;19;1691;-49
2022/10/10 09:25:10;;;;;;;;;;;;;;;;;;7369563;19;970;-47
2022/10/10 09:27:38;;;;;;;;;;;;;;;;;;7369304;19;793;-50
2022/10/10 09:30:07;;;;;;;;;;;;;;;;;;7369953;19;780;-49
2022/10/10 09:32:35;;;;;;;;;;;;;;;;;;7368524;19;1850;-48
2022/10/10 09:35:04;;;;;;;;;;;;;;;;;;7369518;19;859;-47
2022/10/10 09:37:32;;;;;;;;;;;;;;;;;;7369280;19;767;-47
2022/10/10 09:40:00;;;;;;;;;;;;;;;;;;7369254;19;1156;-47
2022/10/10 09:42:28;;;;;;;;;;;;;;;;;;7369197;19;800;-47
2022/10/10 09:44:56;;;;;;;;;;;;;;;;;;7370454;19;1338;-51
2022/10/10 09:47:24;;;;;;;;;;;;;;;;;;7369209;19;933;-47
2022/10/10 09:49:53;;;;;;;;;;;;;;;;;;7368731;19;786;-49
2022/10/10 09:52:21;;;;;;;;;;;;;;;;;;7370491;19;1850;-52
2022/10/10 09:54:49;;;;;;;;;;;;;;;;;;7371307;19;1307;-52
2022/10/10 09:57:17;;;;;;;;;;;;;;;;;;7369730;19;767;-46
2022/10/10 09:59:46;;;;;;;;;;;;;;;;;;7369263;19;835;-49
2022/10/10 10:02:14;;;;;;;;;;;;;;;;;;7369728;19;871;-47
2022/10/10 10:04:42;;;;;;;;;;;;;;;;;;7367525;19;1270;-48
2022/10/10 10:07:10;;;;;;;;;;;;;;;;;;7370100;19;850;-50
2022/10/10 10:09:39;;;;;;;;;;;;;;;;;;7372108;19;1775;-47
2022/10/10 10:12:07;;;;;;;;;;;;;;;;;;7368274;19;1865;-47
2022/10/10 10:14:35;;;;;;;;;;;;;;;;;;7367240;19;1272;-47
2022/10/10 10:17:04;;;;;;;;;;;;;;;;;;7369243;19;822;-48
2022/10/10 10:19:32;;;;;;;;;;;;;;;;;;7370689;19;1802;-49
2022/10/10 10:22:00;;;;;;;;;;;;;;;;;;7372150;19;866;-47
2022/10/10 10:24:28;;;;;;;;;;;;;;;;;;7367488;19;1727;-48
2022/10/10 10:26:57;;;;;;;;;;;;;;;;;;7370793;19;1792;-48
2022/10/10 10:29:25;;;;;;;;;;;;;;;;;;7371099;19;1816;-48
2022/10/10 10:31:53;;;;;;;;;;;;;;;;;;7371756;19;2356;-50
2022/10/10 10:34:21;;;;;;;;;;;;;;;;;;7370434;19;1737;-49
2022/10/10 10:36:50;;;;;;;;;;;;;;;;;;7368951;19;877;-49
2022/10/10 10:39:18;;;;;;;;;;;;;;;;;;7370061;19;1846;-56
2022/10/10 10:41:46;;;;;;;;;;;;;;;;;;7368122;19;832;-49
2022/10/10 10:44:14;;;;;;;;;;;;;;;;;;7366376;19;1247;-47
2022/10/10 10:46:42;;;;;;;;;;;;;;;;;;7368728;19;890;-49
2022/10/10 10:49:10;;;;;;;;;;;;;;;;;;7366901;19;808;-52
2022/10/10 10:51:38;;;;;;;;;;;;;;;;;;7370748;19;1971;-49
2022/10/10 10:54:06;;;;;;;;;;;;;;;;;;7364795;19;1318;-52
2022/10/10 10:56:34;;;;;;;;;;;;;;;;;;7368140;19;1034;-54
2022/10/10 10:59:03;;;;;;;;;;;;;;;;;;7367020;19;804;-50
2022/10/10 11:01:31;;;;;;;;;;;;;;;;;;7368019;19;866;-49
2022/10/10 11:03:59;;;;;;;;;;;;;;;;;;7366309;19;1345;-50
2022/10/10 11:06:27;;;;;;;;;;;;;;;;;;7368157;19;814;-49
2022/10/10 11:08:55;;;;;;;;;;;;;;;;;;7366534;19;1781;-47
2022/10/10 11:11:23;;;;;;;;;;;;;;;;;;7369336;19;1782;-47
2022/10/10 11:13:51;;;;;;;;;;;;;;;;;;7366753;19;1860;-46
2022/10/10 11:16:21;;;;;;;;;;;;;;;;;;7367724;19;847;-49
2022/10/10 11:18:49;;;;;;;;;;;;;;;;;;7367997;19;1822;-48
2022/10/10 11:21:17;;;;;;;;;;;;;;;;;;7368742;19;1795;-48
2022/10/10 11:23:45;;;;;;;;;;;;;;;;;;7366820;19;2052;-46
2022/10/10 11:26:13;;;;;;;;;;;;;;;;;;7370263;19;1813;-47
2022/10/10 11:28:41;;;;;;;;;;;;;;;;;;7369202;19;1835;-47
2022/10/10 11:31:09;;;;;;;;;;;;;;;;;;7367398;19;1650;-48
2022/10/10 11:33:38;;;;;;;;;;;;;;;;;;7361063;19;1858;-50
2022/10/10 11:36:06;;;;;;;;;;;;;;;;;;7371140;19;1823;-47
2022/10/10 11:38:34;;;;;;;;;;;;;;;;;;7369927;19;1696;-51
2022/10/10 11:41:02;;;;;;;;;;;;;;;;;;7370400;19;1636;-53
2022/10/10 11:43:30;;;;;;;;;;;;;;;;;;7365965;19;1851;-53
2022/10/10 11:45:58;;;;;;;;;;;;;;;;;;7366285;19;858;-53
2022/10/10 11:48:26;;;;;;;;;;;;;;;;;;7365290;19;1809;-52
2022/10/10 11:50:57;;;;;;;;;;;;;;;;;;7363236;19;1138;-50
2022/10/10 11:53:25;;;;;;;;;;;;;;;;;;7364563;19;1907;-48
2022/10/10 11:55:53;;;;;;;;;;;;;;;;;;7369916;19;1668;-49
2022/10/10 11:58:22;;;;;;;;;;;;;;;;;;7367428;19;1770;-52
2022/10/10 12:00:50;;;;;;;;;;;;;;;;;;7369752;19;1798;-50
2022/10/10 12:03:18;;;;;;;;;;;;;;;;;;7368607;19;1886;-46
2022/10/10 12:05:46;;;;;;;;;;;;;;;;;;7370402;19;1849;-47
2022/10/10 12:08:14;;;;;;;;;;;;;;;;;;7368923;19;1643;-46
2022/10/10 12:10:42;;;;;;;;;;;;;;;;;;7370901;19;1744;-49
2022/10/10 12:13:10;;;;;;;;;;;;;;;;;;7367630;19;3480;-48
2022/10/10 12:15:38;;;;;;;;;;;;;;;;;;7370692;19;1901;-44
2022/10/10 12:18:07;;;;;;;;;;;;;;;;;;7366439;19;846;-46
2022/10/10 12:20:35;;;;;;;;;;;;;;;;;;7370922;19;1899;-46
2022/10/10 12:23:03;;;;;;;;;;;;;;;;;;7365382;19;1283;-45
2022/10/10 12:25:31;;;;;;;;;;;;;;;;;;7370552;19;1473;-43
2022/10/10 12:27:59;;;;;;;;;;;;;;;;;;7365779;19;858;-44
2022/10/10 12:30:27;;;;;;;;;;;;;;;;;;7369819;19;1767;-44
2022/10/10 12:32:56;;;;;;;;;;;;;;;;;;7365629;19;1849;-43
2022/10/10 12:35:24;;;;;;;;;;;;;;;;;;7368983;19;1664;-43
2022/10/10 12:37:52;;;;;;;;;;;;;;;;;;7368269;19;1441;-44
2022/10/10 12:40:20;;;;;;;;;;;;;;;;;;7369287;19;1578;-46
2022/10/10 12:42:48;;;;;;;;;;;;;;;;;;7366262;19;1825;-44
2022/10/10 12:45:16;;;;;;;;;;;;;;;;;;7374289;19;1763;-43
2022/10/10 12:47:45;;;;;;;;;;;;;;;;;;7373658;19;1813;-43
2022/10/10 12:50:13;;;;;;;;;;;;;;;;;;7375956;19;1790;-40
2022/10/10 12:52:41;;;;;;;;;;;;;;;;;;7374324;19;1847;-43
2022/10/10 12:55:09;;;;;;;;;;;;;;;;;;7375787;19;1800;-43
2022/10/10 12:57:37;;;;;;;;;;;;;;;;;;7375967;19;2099;-43
2022/10/10 13:00:05;;;;;;;;;;;;;;;;;;7375908;19;1791;-43
2022/10/10 13:02:33;;;;;;;;;;;;;;;;;;7375592;19;1862;-42
2022/10/10 13:05:02;;;;;;;;;;;;;;;;;;7376374;19;1928;-47
2022/10/10 13:07:30;;;;;;;;;;;;;;;;;;7371787;19;841;-42
2022/10/10 13:09:58;;;;;;;;;;;;;;;;;;7374881;19;1834;-44
2022/10/10 13:12:26;;;;;;;;;;;;;;;;;;7372128;19;1853;-46
2022/10/10 13:14:54;;;;;;;;;;;;;;;;;;7374645;19;1798;-43
2022/10/10 13:17:23;;;;;;;;;;;;;;;;;;7371981;19;2025;-45
2022/10/10 13:19:51;;;;;;;;;;;;;;;;;;7371411;19;2024;-41
2022/10/10 13:22:19;;;;;;;;;;;;;;;;;;7375469;19;1805;-42
2022/10/10 13:24:47;;;;;;;;;;;;;;;;;;7374203;19;1725;-44
2022/10/10 13:27:15;;;;;;;;;;;;;;;;;;7371899;19;765;-43
2022/10/10 13:29:43;;;;;;;;;;;;;;;;;;7374596;19;1875;-43
2022/10/10 13:32:11;;;;;;;;;;;;;;;;;;7370623;19;1806;-42
2022/10/10 13:34:40;;;;;;;;;;;;;;;;;;7372050;19;1903;-44
2022/10/10 13:37:08;;;;;;;;;;;;;;;;;;7373430;19;1812;-44
2022/10/10 13:39:36;;;;;;;;;;;;;;;;;;7373454;19;1856;-41
2022/10/10 13:42:05;;;;;;;;;;;;;;;;;;7370223;19;874;-42
2022/10/10 13:44:33;;;;;;;;;;;;;;;;;;7371497;19;1786;-42
2022/10/10 13:47:01;;;;;;;;;;;;;;;;;;7374901;19;2013;-45
2022/10/10 13:49:29;;;;;;;;;;;;;;;;;;7371703;19;1821;-43
2022/10/10 13:51:57;;;;;;;;;;;;;;;;;;7371401;19;835;-47
2022/10/10 13:54:25;;;;;;;;;;;;;;;;;;7368936;19;2213;-45
2022/10/10 13:56:53;;;;;;;;;;;;;;;;;;7371261;19;808;-42
2022/10/10 13:59:21;;;;;;;;;;;;;;;;;;7372683;19;1886;-45
2022/10/10 14:01:49;;;;;;;;;;;;;;;;;;7372710;19;2049;-43
2022/10/10 14:04:18;;;;;;;;;;;;;;;;;;7369686;19;1600;-43
2022/10/10 14:06:46;;;;;;;;;;;;;;;;;;7373429;19;2010;-45
2022/10/10 14:09:14;;;;;;;;;;;;;;;;;;7370917;19;2004;-42
2022/10/10 14:11:42;;;;;;;;;;;;;;;;;;7371670;19;758;-42
2022/10/10 14:14:11;;;;;;;;;;;;;;;;;;7371195;19;1851;-44
2022/10/10 14:16:39;;;;;;;;;;;;;;;;;;7373810;19;1819;-42
2022/10/10 14:19:07;;;;;;;;;;;;;;;;;;7371777;19;1569;-40
2022/10/10 14:21:35;;;;;;;;;;;;;;;;;;7373254;19;2027;-42
2022/10/10 14:24:03;;;;;;;;;;;;;;;;;;7370239;19;1762;-41
2022/10/10 14:26:31;;;;;;;;;;;;;;;;;;7374071;19;1872;-42
2022/10/10 14:29:00;;;;;;;;;;;;;;;;;;7372745;19;1840;-41
2022/10/10 14:31:28;;;;;;;;;;;;;;;;;;7373644;19;1879;-41
2022/10/10 14:33:56;;;;;;;;;;;;;;;;;;7372074;19;1873;-41
2022/10/10 14:36:24;;;;;;;;;;;;;;;;;;7373241;19;1841;-39
2022/10/10 14:38:52;;;;;;;;;;;;;;;;;;7372573;19;2017;-42
2022/10/10 14:41:20;;;;;;;;;;;;;;;;;;7373812;19;1784;-40
2022/10/10 14:43:48;;;;;;;;;;;;;;;;;;7372103;19;1450;-44
2022/10/10 14:46:16;;;;;;;;;;;;;;;;;;7370585;19;840;-46
2022/10/10 14:48:45;;;;;;;;;;;;;;;;;;7370333;19;1868;-43
2022/10/10 14:51:13;;;;;;;;;;;;;;;;;;7372442;19;1840;-44
2022/10/10 14:53:41;;;;;;;;;;;;;;;;;;7369123;19;1866;-43
2022/10/10 14:56:09;;;;;;;;;;;;;;;;;;7374807;19;1669;-41
2022/10/10 14:58:37;;;;;;;;;;;;;;;;;;7372102;19;1817;-41
2022/10/10 15:01:05;;;;;;;;;;;;;;;;;;7373537;19;1792;-40
2022/10/10 15:03:33;;;;;;;;;;;;;;;;;;7369155;19;1860;-41
2022/10/10 15:06:02;;;;;;;;;;;;;;;;;;7368987;19;1827;-42
2022/10/10 15:08:30;;;;;;;;;;;;;;;;;;7367209;19;1762;-40
2022/10/10 15:10:58;;;;;;;;;;;;;;;;;;7370989;19;1817;-42
2022/10/10 15:13:26;;;;;;;;;;;;;;;;;;7367546;19;1861;-42
2022/10/10 15:15:54;;;;;;;;;;;;;;;;;;7369623;19;1560;-42
2022/10/10 15:18:22;;;;;;;;;;;;;;;;;;7368125;19;1873;-42
2022/10/10 15:20:50;;;;;;;;;;;;;;;;;;7371661;19;1684;-42
2022/10/10 15:23:19;;;;;;;;;;;;;;;;;;7366978;19;1852;-41
2022/10/10 15:25:47;;;;;;;;;;;;;;;;;;7371836;19;1853;-40
2022/10/10 15:28:15;;;;;;;;;;;;;;;;;;7367472;19;1869;-40
2022/10/10 15:30:43;;;;;;;;;;;;;;;;;;7368656;19;792;-41
2022/10/10 15:33:12;;;;;;;;;;;;;;;;;;7366238;19;2043;-41
2022/10/10 15:35:40;;;;;;;;;;;;;;;;;;7372831;19;1872;-41
2022/10/10 15:38:08;;;;;;;;;;;;;;;;;;7369144;19;2039;-40
2022/10/10 15:40:36;;;;;;;;;;;;;;;;;;7370602;19;1818;-45
2022/10/10 15:43:04;;;;;;;;;;;;;;;;;;7367156;19;1369;-46
2022/10/10 15:45:32;;;;;;;;;;;;;;;;;;7371707;19;1856;-46
2022/10/10 15:48:00;;;;;;;;;;;;;;;;;;7366837;19;886;-45
2022/10/10 15:50:28;;;;;;;;;;;;;;;;;;7371938;19;1741;-44
2022/10/10 15:52:57;;;;;;;;;;;;;;;;;;7367878;19;2117;-43
2022/10/10 15:55:25;;;;;;;;;;;;;;;;;;7366442;19;1879;-44
2022/10/10 15:57:53;;;;;;;;;;;;;;;;;;7365891;19;902;-43
2022/10/10 16:00:21;;;;;;;;;;;;;;;;;;7370558;19;1643;-42
2022/10/10 16:02:49;;;;;;;;;;;;;;;;;;7370211;19;1310;-43
2022/10/10 16:05:17;;;;;;;;;;;;;;;;;;7374530;19;1863;-41
2022/10/10 16:07:45;;;;;;;;;;;;;;;;;;7367600;19;1737;-41
2022/10/10 16:10:13;;;;;;;;;;;;;;;;;;7369371;19;1826;-40
2022/10/10 16:12:42;;;;;;;;;;;;;;;;;;7369642;19;1821;-40
2022/10/10 16:15:10;;;;;;;;;;;;;;;;;;7367998;19;1886;-41
2022/10/10 16:17:38;;;;;;;;;;;;;;;;;;7366995;19;814;-41
2022/10/10 16:20:06;;;;;;;;;;;;;;;;;;7377997;19;1772;-40
2022/10/10 16:22:34;;;;;;;;;;;;;;;;;;7376766;19;1816;-41
2022/10/10 16:25:02;;;;;;;;;;;;;;;;;;7376870;19;1829;-40
2022/10/10 16:27:31;;;;;;;;;;;;;;;;;;7376346;19;1838;-41
2022/10/10 16:29:59;;;;;;;;;;;;;;;;;;7376898;19;2004;-40
2022/10/10 16:32:27;;;;;;;;;;;;;;;;;;7376609;19;2038;-41
2022/10/10 16:34:55;;;;;;;;;;;;;;;;;;7376216;19;1849;-40
2022/10/10 16:37:23;;;;;;;;;;;;;;;;;;7372832;19;810;-40
2022/10/10 16:39:51;;;;;;;;;;;;;;;;;;7375232;19;1824;-40
2022/10/10 16:42:19;;;;;;;;;;;;;;;;;;7375144;19;1763;-40
2022/10/10 16:44:47;;;;;;;;;;;;;;;;;;7377296;19;1983;-41
2022/10/10 16:47:16;;;;;;;;;;;;;;;;;;7373122;19;795;-41
2022/10/10 16:49:44;;;;;;;;;;;;;;;;;;7373562;19;1853;-40
2022/10/10 16:52:12;;;;;;;;;;;;;;;;;;7374819;19;1841;-40
2022/10/10 16:54:40;;;;;;;;;;;;;;;;;;7374571;19;1855;-41
2022/10/10 16:57:08;;;;;;;;;;;;;;;;;;7372895;19;2008;-43
2022/10/10 16:59:36;;;;;;;;;;;;;;;;;;7372740;19;2053;-43
2022/10/10 17:02:04;;;;;;;;;;;;;;;;;;7372703;19;893;-43
2022/10/10 17:04:32;;;;;;;;;;;;;;;;;;7374243;19;1811;-43
2022/10/10 17:07:01;;;;;;;;;;;;;;;;;;7376664;19;2012;-43
2022/10/10 17:09:29;;;;;;;;;;;;;;;;;;7374964;19;1822;-44
2022/10/10 17:11:57;;;;;;;;;;;;;;;;;;7372568;19;781;-38
2022/10/10 17:14:25;;;;;;;;;;;;;;;;;;7374392;19;1863;-39
2022/10/10 17:16:53;;;;;;;;;;;;;;;;;;7373614;19;1844;-39